Time;durP1;ratioP1;P1;durP2;ratioP2;P2;SDS_P1;SDS_P2;PMS_P1;PMS_P2;Temp;Humidity;BMP_temperature;BMP_pressure;BME280_temperature;BME280_humidity;BME280_pressure;Samples;Min_cycle;Max_cycle;Signal;HPM_P1;HPM_P2
2023/02/24 00:02:04;;;;;;;53.28;36.60;;;8.30;99.90;;;;;;5035371;28;20239;-75
2023/02/24 00:04:34;;;;;;;45.65;32.17;;;8.40;99.90;;;;;;5031546;28;20223;-75
2023/02/24 00:07:01;;;;;;;49.78;34.08;;;8.40;99.90;;;;;;5034400;28;20522;-75
2023/02/24 00:09:32;;;;;;;51.08;34.80;;;8.40;99.90;;;;;;5032850;28;20215;-75
2023/02/24 00:12:02;;;;;;;55.53;37.55;;;8.40;99.90;;;;;;5032908;28;20188;-75
2023/02/24 00:14:30;;;;;;;53.88;38.28;;;8.40;99.90;;;;;;5032540;28;20242;-75
2023/02/24 00:16:58;;;;;;;55.75;38.55;;;8.30;99.90;;;;;;5031819;28;20474;-75
2023/02/24 00:19:28;;;;;;;50.65;35.50;;;8.30;99.90;;;;;;5031679;28;20219;-74
2023/02/24 00:21:55;;;;;;;52.95;35.78;;;8.20;99.90;;;;;;5031880;28;20223;-75
2023/02/24 00:24:22;;;;;;;45.65;32.83;;;8.20;99.90;;;;;;5030857;28;20250;-75
2023/02/24 00:26:54;;;;;;;48.55;33.35;;;8.30;99.90;;;;;;5030511;28;20188;-75
2023/02/24 00:29:23;;;;;;;47.65;34.17;;;8.20;99.90;;;;;;5032995;28;20247;-74
2023/02/24 00:31:55;;;;;;;43.92;32.65;;;8.20;99.90;;;;;;5033350;28;20238;-75
2023/02/24 00:34:23;;;;;;;46.05;33.20;;;8.20;99.90;;;;;;5032112;28;20223;-75
2023/02/24 00:36:50;;;;;;;51.78;35.28;;;8.10;99.90;;;;;;5036177;28;20215;-75
2023/02/24 00:39:17;;;;;;;51.28;35.55;;;8.00;99.90;;;;;;5032989;28;20243;-75
2023/02/24 00:41:44;;;;;;;48.05;34.15;;;7.90;99.90;;;;;;5029437;28;20255;-75
2023/02/24 00:44:14;;;;;;;48.17;32.92;;;7.90;99.90;;;;;;5030225;28;20247;-75
2023/02/24 00:46:44;;;;;;;50.58;35.20;;;7.90;99.90;;;;;;5031745;28;20207;-75
2023/02/24 00:49:15;;;;;;;46.35;32.88;;;7.90;99.90;;;;;;5031344;28;21556;-74
2023/02/24 00:51:44;;;;;;;47.28;32.30;;;7.90;99.90;;;;;;5032800;28;20310;-75
2023/02/24 00:54:13;;;;;;;50.97;35.45;;;7.90;99.90;;;;;;5029412;28;20687;-75
2023/02/24 00:56:41;;;;;;;62.42;40.75;;;8.00;99.90;;;;;;5028635;28;20218;-75
2023/02/24 00:59:11;;;;;;;71.85;47.13;;;7.90;99.90;;;;;;5027935;28;20313;-74
2023/02/24 01:01:40;;;;;;;56.70;39.38;;;7.90;99.90;;;;;;5028722;28;20310;-75
2023/02/24 01:04:10;;;;;;;60.55;40.92;;;7.90;99.90;;;;;;5028074;28;20232;-75
2023/02/24 01:06:38;;;;;;;51.28;36.97;;;7.90;99.90;;;;;;5030544;28;20670;-74
2023/02/24 01:09:10;;;;;;;52.67;34.97;;;7.90;99.90;;;;;;5029717;28;20272;-75
2023/02/24 01:14:20;;;;;;;52.25;35.22;;;7.90;99.90;;;;;;4997286;28;20215;-76
2023/02/24 01:16:49;;;;;;;51.75;35.08;;;7.90;99.90;;;;;;5027566;28;20255;-75
2023/02/24 01:19:16;;;;;;;51.17;35.45;;;8.00;99.90;;;;;;5029292;28;20291;-75
2023/02/24 01:21:44;;;;;;;57.88;39.38;;;8.00;99.90;;;;;;5031691;28;20804;-75
2023/02/24 01:24:12;;;;;;;56.22;37.97;;;8.00;99.90;;;;;;5028869;28;20235;-75
2023/02/24 01:26:40;;;;;;;54.28;37.50;;;8.00;99.90;;;;;;5029103;28;20692;-75
2023/02/24 01:29:08;;;;;;;49.38;33.65;;;8.00;99.90;;;;;;5027492;28;20238;-75
2023/02/24 01:31:35;;;;;;;51.35;35.25;;;8.10;99.90;;;;;;5024486;28;20220;-75
2023/02/24 01:34:04;;;;;;;53.78;36.42;;;8.10;99.90;;;;;;5029793;28;20250;-75
2023/02/24 01:36:32;;;;;;;50.78;34.75;;;8.00;99.90;;;;;;5031294;28;20223;-75
2023/02/24 01:39:00;;;;;;;48.88;35.10;;;8.00;99.90;;;;;;5029067;28;20235;-76
2023/02/24 01:41:29;;;;;;;49.65;33.35;;;8.00;99.90;;;;;;5028059;28;20258;-75
2023/02/24 01:44:01;;;;;;;49.72;33.38;;;8.00;99.90;;;;;;5032995;28;20225;-75
2023/02/24 01:46:31;;;;;;;48.85;33.50;;;8.10;99.90;;;;;;5032033;28;20196;-75
2023/02/24 01:49:03;;;;;;;58.08;37.83;;;8.00;99.90;;;;;;5028304;28;20622;-75
2023/02/24 01:51:36;;;;;;;51.28;36.08;;;8.00;99.90;;;;;;5032391;28;20540;-75
2023/02/24 01:54:04;;;;;;;49.33;33.67;;;8.00;99.90;;;;;;5035336;28;20243;-75
2023/02/24 01:56:33;;;;;;;54.10;36.22;;;8.00;99.90;;;;;;5031251;28;20219;-76
2023/02/24 01:59:01;;;;;;;60.03;39.78;;;7.90;99.90;;;;;;5033393;28;20266;-75
2023/02/24 02:01:29;;;;;;;55.78;37.28;;;7.90;99.90;;;;;;5033962;28;20211;-75
2023/02/24 02:04:04;;;;;;;54.38;36.17;;;7.90;99.90;;;;;;5032740;28;20606;-75
2023/02/24 02:06:32;;;;;;;48.70;33.03;;;7.90;99.90;;;;;;5032096;28;20379;-75
2023/02/24 02:09:00;;;;;;;60.08;39.75;;;7.90;99.90;;;;;;5031339;28;20262;-76
2023/02/24 02:11:27;;;;;;;52.80;35.92;;;7.90;99.90;;;;;;5033003;28;20215;-75
2023/02/24 02:13:55;;;;;;;57.28;39.75;;;7.90;99.90;;;;;;5032453;28;20238;-75
2023/02/24 02:16:50;;;;;;;49.15;36.00;;;7.90;99.90;;;;;;5027444;28;20223;-76
2023/02/24 02:19:56;;;;;;;59.85;39.38;;;7.90;99.90;;;;;;5028721;28;20346;-75
2023/02/24 02:22:59;;;;;;;58.70;39.28;;;7.90;99.90;;;;;;5033839;28;20940;-75
2023/02/24 02:25:42;;;;;;;55.45;38.40;;;7.80;99.90;;;;;;4998194;28;20281;-75
2023/02/24 02:28:32;;;;;;;53.33;35.90;;;7.70;99.90;;;;;;5035305;28;20285;-75
2023/02/24 02:31:21;;;;;;;48.40;34.95;;;7.70;99.90;;;;;;5037451;28;20305;-75
2023/02/24 02:34:30;;;;;;;52.72;34.08;;;7.70;99.90;;;;;;5038612;28;20247;-76
2023/02/24 02:37:05;;;;;;;48.67;33.75;;;7.60;99.90;;;;;;5009683;28;20219;-75
2023/02/24 02:39:39;;;;;;;55.40;37.03;;;7.60;99.90;;;;;;5036059;28;20222;-75
2023/02/24 02:42:18;;;;;;;62.22;38.65;;;7.50;99.90;;;;;;5032104;28;20227;-75
2023/02/24 02:44:54;;;;;;;82.53;52.97;;;7.50;99.90;;;;;;5036657;28;20226;-74
2023/02/24 02:47:27;;;;;;;63.03;40.65;;;7.40;99.90;;;;;;5036464;28;20195;-75
2023/02/24 02:49:57;;;;;;;81.57;50.90;;;7.40;99.90;;;;;;5036656;28;20800;-76
2023/02/24 02:52:31;;;;;;;69.38;45.03;;;7.30;99.90;;;;;;5029139;28;20236;-75
2023/02/24 02:55:03;;;;;;;64.80;42.83;;;7.30;99.90;;;;;;5031107;28;20672;-75
2023/02/24 02:57:32;;;;;;;62.15;41.28;;;7.30;99.90;;;;;;5036132;28;20313;-75
2023/02/24 03:00:09;;;;;;;65.85;44.03;;;7.30;99.90;;;;;;5032123;28;20243;-75
2023/02/24 03:02:38;;;;;;;63.30;41.20;;;7.20;99.90;;;;;;5035757;28;20191;-75
2023/02/24 03:05:10;;;;;;;66.32;40.78;;;7.20;99.90;;;;;;5038643;28;20223;-75
2023/02/24 03:07:44;;;;;;;68.20;43.58;;;7.20;99.90;;;;;;5035165;28;20283;-75
2023/02/24 03:10:19;;;;;;;63.28;42.30;;;7.30;99.90;;;;;;5036132;28;20223;-75
2023/02/24 03:12:50;;;;;;;63.78;42.42;;;7.20;99.90;;;;;;5037070;28;20199;-75
2023/02/24 03:15:19;;;;;;;81.53;49.60;;;7.20;99.90;;;;;;5036845;28;20257;-75
2023/02/24 03:17:50;;;;;;;79.50;48.95;;;7.20;99.90;;;;;;5035263;28;20636;-75
2023/02/24 03:20:21;;;;;;;74.07;50.22;;;7.20;99.90;;;;;;5035892;28;20219;-75
2023/02/24 03:22:56;;;;;;;88.03;55.60;;;7.20;99.90;;;;;;5036199;28;20214;-75
2023/02/24 03:25:28;;;;;;;81.03;52.08;;;7.20;99.90;;;;;;5034336;28;20282;-75
2023/02/24 03:28:02;;;;;;;91.47;55.13;;;7.10;99.90;;;;;;5036966;28;20219;-75
2023/02/24 03:30:34;;;;;;;81.35;51.70;;;7.10;99.90;;;;;;5035334;28;20226;-75
2023/02/24 03:33:05;;;;;;;71.30;46.38;;;7.10;99.90;;;;;;5033528;28;20192;-74
2023/02/24 03:35:37;;;;;;;71.13;45.00;;;7.10;99.90;;;;;;5035071;28;20207;-75
2023/02/24 03:38:06;;;;;;;65.95;43.65;;;7.10;99.90;;;;;;5033632;28;20195;-75
2023/02/24 03:40:33;;;;;;;60.97;39.03;;;7.10;99.90;;;;;;5031929;28;20722;-75
2023/02/24 03:43:06;;;;;;;60.08;40.13;;;7.10;99.90;;;;;;5031509;28;20188;-75
2023/02/24 03:45:36;;;;;;;60.47;38.25;;;7.10;99.90;;;;;;5033700;28;20211;-74
2023/02/24 03:48:05;;;;;;;59.17;39.45;;;7.10;99.90;;;;;;5034514;28;20195;-75
2023/02/24 03:50:33;;;;;;;54.63;36.85;;;7.10;99.90;;;;;;5032545;28;20215;-74
2023/02/24 03:53:14;;;;;;;60.45;38.78;;;7.10;99.90;;;;;;5032362;28;20226;-75
2023/02/24 03:55:58;;;;;;;54.22;36.83;;;7.20;99.90;;;;;;5033752;28;20223;-74
2023/02/24 03:58:31;;;;;;;53.53;36.72;;;7.20;99.90;;;;;;5035987;28;20226;-75
2023/02/24 04:01:05;;;;;;;61.58;40.85;;;7.20;99.90;;;;;;5031156;28;20212;-75
2023/02/24 04:03:36;;;;;;;63.53;43.53;;;7.20;99.90;;;;;;5035221;28;20266;-75
2023/02/24 04:06:10;;;;;;;62.83;41.80;;;7.20;99.90;;;;;;5033438;28;20270;-74
2023/02/24 04:08:45;;;;;;;55.35;37.10;;;7.20;99.90;;;;;;5031512;28;20229;-75
2023/02/24 04:11:22;;;;;;;55.75;37.17;;;7.30;99.90;;;;;;5031331;28;20226;-75
2023/02/24 04:13:57;;;;;;;60.83;39.97;;;7.30;99.90;;;;;;5034181;28;20222;-74
2023/02/24 04:16:28;;;;;;;56.78;38.20;;;7.30;99.90;;;;;;5030353;28;20223;-75
2023/02/24 04:18:58;;;;;;;55.83;38.00;;;7.40;99.90;;;;;;5032850;28;20222;-75
2023/02/24 04:21:29;;;;;;;52.15;37.22;;;7.40;99.90;;;;;;5033551;28;20219;-75
2023/02/24 04:23:59;;;;;;;53.92;34.83;;;7.40;99.90;;;;;;5031939;28;20311;-75
2023/02/24 04:26:28;;;;;;;50.72;35.33;;;7.40;99.90;;;;;;5035210;28;20895;-75
2023/02/24 04:28:56;;;;;;;49.13;33.95;;;7.40;99.90;;;;;;5031592;28;20246;-75
2023/02/24 04:31:26;;;;;;;44.53;33.17;;;7.50;99.90;;;;;;5031358;28;20251;-73
2023/02/24 04:33:53;;;;;;;46.95;32.58;;;7.50;99.90;;;;;;5029868;28;20254;-75
2023/02/24 04:36:20;;;;;;;51.33;33.63;;;7.50;99.90;;;;;;5035725;28;20220;-75
2023/02/24 04:38:48;;;;;;;56.83;37.17;;;7.60;99.90;;;;;;5031567;28;20706;-75
2023/02/24 04:41:19;;;;;;;56.22;37.30;;;7.60;99.90;;;;;;5062960;22;20258;-72
2023/02/24 04:43:49;;;;;;;54.10;35.95;;;7.60;99.90;;;;;;5026420;28;20235;-72
2023/02/24 04:46:16;;;;;;;50.78;34.97;;;7.60;99.90;;;;;;5028754;28;20195;-73
2023/02/24 04:48:44;;;;;;;49.83;34.28;;;7.50;99.90;;;;;;5025477;28;20311;-75
2023/02/24 04:51:12;;;;;;;49.53;34.45;;;7.50;99.90;;;;;;5024788;28;20219;-72
2023/02/24 04:53:39;;;;;;;47.25;32.20;;;7.50;99.90;;;;;;5017566;28;20308;-72
2023/02/24 04:56:08;;;;;;;46.15;33.20;;;7.50;99.90;;;;;;5023175;28;20286;-72
2023/02/24 04:58:38;;;;;;;53.58;36.55;;;7.40;99.90;;;;;;5021217;28;20223;-72
2023/02/24 05:01:10;;;;;;;53.47;33.92;;;7.40;99.90;;;;;;5022507;28;20239;-74
2023/02/24 05:03:40;;;;;;;62.40;40.40;;;7.40;99.90;;;;;;5020336;28;20270;-72
2023/02/24 05:06:12;;;;;;;56.97;40.15;;;7.30;99.90;;;;;;5021599;28;20202;-71
2023/02/24 05:08:39;;;;;;;56.03;36.33;;;7.20;99.90;;;;;;5016017;28;20770;-71
2023/02/24 05:11:07;;;;;;;51.70;36.13;;;7.20;99.90;;;;;;5024466;28;20255;-71
2023/02/24 05:13:36;;;;;;;51.05;34.45;;;7.20;99.90;;;;;;5018552;28;20318;-71
2023/02/24 05:16:07;;;;;;;50.75;34.65;;;7.20;99.90;;;;;;5023572;28;20207;-72
2023/02/24 05:18:35;;;;;;;52.83;36.90;;;7.20;99.90;;;;;;5022950;28;20227;-71
2023/02/24 05:23:53;;;;;;;72.43;47.45;;;7.00;99.90;;;;;;5021571;28;20704;-73
2023/02/24 05:26:24;;;;;;;67.55;44.55;;;6.90;99.90;;;;;;5023052;28;20239;-71
2023/02/24 05:28:53;;;;;;;56.67;38.13;;;6.90;99.90;;;;;;5019571;28;20273;-72
2023/02/24 05:31:24;;;;;;;52.00;35.45;;;7.00;99.90;;;;;;5019298;28;20220;-71
2023/02/24 05:33:56;;;;;;;54.40;36.22;;;7.00;99.90;;;;;;5022286;28;20224;-70
2023/02/24 05:36:24;;;;;;;51.97;37.17;;;7.00;99.90;;;;;;5025228;28;20235;-77
2023/02/24 05:38:56;;;;;;;52.60;35.92;;;7.00;99.90;;;;;;5026984;28;20239;-72
2023/02/24 05:41:31;;;;;;;54.20;36.88;;;7.00;99.90;;;;;;5027690;28;20223;-71
2023/02/24 05:44:03;;;;;;;57.28;39.75;;;6.90;99.90;;;;;;5024636;28;20775;-71
2023/02/24 05:46:33;;;;;;;51.53;36.90;;;6.90;99.90;;;;;;5020985;28;20604;-73
2023/02/24 05:49:02;;;;;;;59.67;38.80;;;6.80;99.90;;;;;;5017317;28;20235;-72
2023/02/24 05:51:34;;;;;;;58.35;37.42;;;6.80;99.90;;;;;;5029325;28;20247;-71
2023/02/24 05:54:03;;;;;;;62.83;42.47;;;6.80;99.90;;;;;;5025453;28;20211;-71
2023/02/24 05:56:31;;;;;;;63.17;40.75;;;6.70;99.90;;;;;;5023138;28;20200;-70
2023/02/24 05:59:01;;;;;;;55.22;37.95;;;6.70;99.90;;;;;;5023021;28;21864;-70
2023/02/24 06:01:30;;;;;;;55.65;38.33;;;6.60;99.90;;;;;;5024354;28;20215;-70
2023/02/24 06:04:04;;;;;;;60.10;40.42;;;6.70;99.90;;;;;;5018147;28;20228;-72
2023/02/24 06:06:35;;;;;;;54.53;37.03;;;6.70;99.90;;;;;;5024615;28;20202;-71
2023/02/24 06:09:09;;;;;;;52.72;34.80;;;6.70;99.90;;;;;;5025407;28;20686;-71
2023/02/24 06:11:37;;;;;;;66.20;41.78;;;6.70;99.90;;;;;;5026072;28;20806;-71
2023/02/24 06:14:05;;;;;;;60.03;38.90;;;6.80;99.90;;;;;;5017865;28;20294;-71
2023/02/24 06:16:33;;;;;;;64.43;42.58;;;6.80;99.90;;;;;;5020469;28;20317;-72
2023/02/24 06:19:02;;;;;;;60.45;39.83;;;6.80;99.90;;;;;;5014659;28;20342;-70
2023/02/24 06:21:29;;;;;;;61.10;39.35;;;6.80;99.90;;;;;;5017552;28;20258;-72
2023/02/24 06:23:57;;;;;;;56.95;37.50;;;6.80;99.90;;;;;;5018874;28;20258;-71
2023/02/24 06:26:28;;;;;;;53.13;35.38;;;6.80;99.90;;;;;;5022773;28;20204;-70
2023/02/24 06:28:56;;;;;;;49.28;33.15;;;6.90;99.90;;;;;;5021376;28;20229;-71
2023/02/24 06:31:24;;;;;;;50.33;34.30;;;7.00;99.90;;;;;;5021378;28;20274;-72
2023/02/24 06:33:52;;;;;;;47.40;33.83;;;7.00;99.90;;;;;;5015967;28;20239;-71
2023/02/24 06:36:20;;;;;;;51.97;35.38;;;7.10;99.90;;;;;;5019031;28;20583;-73
2023/02/24 06:38:48;;;;;;;51.05;34.80;;;7.10;99.90;;;;;;5018681;28;20323;-72
2023/02/24 06:41:15;;;;;;;50.97;35.03;;;7.20;99.90;;;;;;5018661;28;20536;-73
2023/02/24 06:43:44;;;;;;;54.40;36.50;;;7.20;99.90;;;;;;5019556;28;20309;-72
2023/02/24 06:46:13;;;;;;;55.63;35.83;;;7.30;99.90;;;;;;5014874;28;20279;-75
2023/02/24 06:48:40;;;;;;;48.78;34.22;;;7.40;99.90;;;;;;5021113;28;20251;-74
2023/02/24 06:51:09;;;;;;;52.00;34.97;;;7.40;99.90;;;;;;5018505;28;20286;-72
2023/02/24 06:53:41;;;;;;;52.83;35.90;;;7.50;99.90;;;;;;5010423;28;20220;-74
2023/02/24 06:56:13;;;;;;;51.00;35.38;;;7.60;99.90;;;;;;5013336;28;20210;-71
2023/02/24 06:58:42;;;;;;;52.00;34.55;;;7.60;99.90;;;;;;5007963;28;20353;-73
2023/02/24 07:01:10;;;;;;;49.20;33.83;;;7.70;99.90;;;;;;5010596;28;20759;-74
2023/02/24 07:03:46;;;;;;;53.83;36.13;;;7.70;99.90;;;;;;5011113;28;20234;-72
2023/02/24 07:06:24;;;;;;;68.90;43.22;;;7.60;99.90;;;;;;5011542;28;20209;-72
2023/02/24 07:08:53;;;;;;;76.10;49.67;;;7.60;99.90;;;;;;5009863;28;20232;-72
2023/02/24 07:11:21;;;;;;;64.97;42.65;;;7.50;99.90;;;;;;5010823;28;20306;-75
2023/02/24 07:13:49;;;;;;;67.40;45.20;;;7.40;99.90;;;;;;5012633;28;20726;-74
2023/02/24 07:16:17;;;;;;;62.63;41.42;;;7.30;99.90;;;;;;5018795;28;20662;-74
2023/02/24 07:18:47;;;;;;;67.85;43.55;;;7.30;99.90;;;;;;5017442;28;20742;-74
2023/02/24 07:21:16;;;;;;;65.82;42.72;;;7.30;99.90;;;;;;5016679;28;20734;-73
2023/02/24 07:23:48;;;;;;;58.90;40.38;;;7.40;99.90;;;;;;5020636;28;20273;-73
2023/02/24 07:26:21;;;;;;;59.45;38.95;;;7.50;99.90;;;;;;5019222;28;20242;-71
2023/02/24 07:28:48;;;;;;;55.67;37.42;;;7.50;99.90;;;;;;5014889;28;20594;-75
2023/02/24 07:31:17;;;;;;;60.83;39.25;;;7.60;99.90;;;;;;5018216;28;20302;-75
2023/02/24 07:33:45;;;;;;;58.53;40.97;;;7.70;99.90;;;;;;5017546;28;20315;-75
2023/02/24 07:36:14;;;;;;;71.30;44.92;;;7.70;99.90;;;;;;5017995;28;20614;-73
2023/02/24 07:38:42;;;;;;;64.00;44.60;;;7.70;99.90;;;;;;5018428;28;20223;-73
2023/02/24 07:41:11;;;;;;;59.28;40.50;;;7.70;99.90;;;;;;5018518;28;20273;-75
2023/02/24 07:43:41;;;;;;;65.85;43.35;;;7.80;99.90;;;;;;5019863;28;20314;-75
2023/02/24 07:46:10;;;;;;;69.88;45.67;;;7.80;99.90;;;;;;5015718;28;20283;-74
2023/02/24 07:48:38;;;;;;;57.28;38.90;;;7.80;99.90;;;;;;5018514;28;20219;-72
2023/02/24 07:51:07;;;;;;;64.53;42.83;;;7.80;99.90;;;;;;5018603;28;20215;-72
2023/02/24 07:53:34;;;;;;;66.25;45.58;;;7.70;99.90;;;;;;5016924;28;20219;-73
2023/02/24 07:56:05;;;;;;;62.00;41.05;;;7.70;99.90;;;;;;5017995;28;20204;-74
2023/02/24 07:58:33;;;;;;;61.25;40.28;;;7.70;99.90;;;;;;5020115;28;20235;-72
2023/02/24 08:01:07;;;;;;;61.15;41.17;;;7.80;99.90;;;;;;5020164;28;20889;-74
2023/02/24 08:03:40;;;;;;;60.47;42.67;;;7.80;99.90;;;;;;5019095;28;20231;-71
2023/02/24 08:06:14;;;;;;;53.13;38.97;;;7.70;99.90;;;;;;5018221;28;20210;-74
2023/02/24 08:08:56;;;;;;;65.57;43.80;;;7.70;99.90;;;;;;5018994;28;20740;-72
2023/02/24 08:11:25;;;;;;;63.45;42.88;;;7.70;99.90;;;;;;5019512;28;20571;-72
2023/02/24 08:13:52;;;;;;;58.03;39.08;;;7.70;99.90;;;;;;5013395;28;20249;-72
2023/02/24 08:16:22;;;;;;;58.33;39.70;;;7.70;99.90;;;;;;5017885;28;20200;-72
2023/02/24 08:18:49;;;;;;;51.65;36.30;;;7.80;99.90;;;;;;5016567;28;20220;-73
2023/02/24 08:21:18;;;;;;;51.60;36.40;;;7.90;99.90;;;;;;5018053;28;20235;-73
2023/02/24 08:23:47;;;;;;;53.97;37.40;;;8.00;99.90;;;;;;5017770;28;20220;-74
2023/02/24 08:26:14;;;;;;;48.95;34.25;;;8.10;99.90;;;;;;5013670;28;20279;-72
2023/02/24 08:28:42;;;;;;;50.67;34.63;;;8.20;99.90;;;;;;5018268;28;20228;-76
2023/02/24 08:31:11;;;;;;;51.17;34.55;;;8.20;99.90;;;;;;5014315;28;20239;-74
2023/02/24 08:33:39;;;;;;;50.58;35.92;;;8.30;99.90;;;;;;5020142;28;20297;-75
2023/02/24 08:36:06;;;;;;;49.78;36.42;;;8.30;99.90;;;;;;5016613;28;20660;-72
2023/02/24 08:38:43;;;;;;;57.63;39.00;;;8.30;99.90;;;;;;5017498;28;20311;-74
2023/02/24 08:41:18;;;;;;;61.17;39.40;;;8.20;99.90;;;;;;5016493;28;20219;-73
2023/02/24 08:43:46;;;;;;;67.40;43.15;;;8.20;99.90;;;;;;5014889;28;20227;-74
2023/02/24 08:46:19;;;;;;;56.17;37.38;;;8.10;99.90;;;;;;5016375;28;20195;-76
2023/02/24 08:48:54;;;;;;;57.42;39.53;;;8.00;99.90;;;;;;5017275;28;20645;-73
2023/02/24 08:51:23;;;;;;;57.80;39.17;;;8.00;99.90;;;;;;5017320;28;20310;-74
2023/02/24 08:53:54;;;;;;;55.92;37.88;;;8.10;99.90;;;;;;5020546;28;20270;-72
2023/02/24 08:56:25;;;;;;;53.47;37.88;;;8.20;99.90;;;;;;5014044;28;20306;-74
2023/02/24 08:58:56;;;;;;;59.80;39.17;;;8.30;99.90;;;;;;5018291;28;20307;-75
2023/02/24 09:01:27;;;;;;;57.33;38.38;;;8.30;99.90;;;;;;5013314;28;20225;-74
2023/02/24 09:03:57;;;;;;;53.63;36.78;;;8.40;99.90;;;;;;5020248;28;20247;-74
2023/02/24 09:06:35;;;;;;;56.17;39.33;;;8.50;99.90;;;;;;5018466;28;20287;-77
2023/02/24 09:09:17;;;;;;;59.40;40.05;;;8.60;99.90;;;;;;5014991;28;20302;-75
2023/02/24 09:11:45;;;;;;;58.47;39.03;;;8.80;99.90;;;;;;5016371;28;20631;-74
2023/02/24 09:14:17;;;;;;;56.03;38.72;;;8.90;99.90;;;;;;5017609;28;20255;-74
2023/02/24 09:20:14;;;;;;;55.13;40.30;;;9.00;99.90;;;;;;5013569;28;20293;-75
2023/02/24 09:22:30;;;;;;;66.25;42.55;;;8.90;99.90;;;;;;5014888;28;20219;-73
2023/02/24 09:27:41;;;;;;;57.08;38.72;;;8.90;99.90;;;;;;5016815;28;20216;-76
2023/02/24 09:30:34;;;;;;;67.18;43.53;;;9.00;99.90;;;;;;5018227;28;20227;-75
2023/02/24 09:32:59;;;;;;;68.93;44.42;;;9.10;99.90;;;;;;5016147;28;20195;-74
2023/02/24 09:35:29;;;;;;;61.60;41.58;;;9.10;99.90;;;;;;5013926;28;20627;-74
2023/02/24 09:37:59;;;;;;;60.83;41.03;;;9.10;99.90;;;;;;5016563;28;20214;-74
2023/02/24 09:40:39;;;;;;;60.50;41.38;;;9.20;99.90;;;;;;5015865;28;20674;-72
2023/02/24 09:43:16;;;;;;;63.78;44.42;;;9.40;99.90;;;;;;5020323;28;20670;-73
2023/02/24 09:45:52;;;;;;;72.70;48.00;;;9.50;99.90;;;;;;5020308;28;20202;-75
2023/02/24 09:48:28;;;;;;;69.82;47.47;;;9.70;99.90;;;;;;5019432;28;20784;-74
2023/02/24 09:51:04;;;;;;;68.80;44.92;;;9.80;99.90;;;;;;5020638;28;20728;-73
2023/02/24 09:53:40;;;;;;;64.32;43.53;;;10.00;99.90;;;;;;5021145;28;20289;-75
2023/02/24 09:56:20;;;;;;;81.35;53.75;;;10.30;99.90;;;;;;5013772;28;20199;-76
2023/02/24 09:58:52;;;;;;;72.30;47.40;;;10.40;99.90;;;;;;5022927;28;20492;-76
2023/02/24 10:01:32;;;;;;;66.40;46.30;;;10.30;99.90;;;;;;5019918;28;20227;-74
2023/02/24 10:04:06;;;;;;;66.53;45.50;;;10.30;99.90;;;;;;5017212;28;20251;-71
2023/02/24 10:06:40;;;;;;;75.45;49.72;;;10.60;99.90;;;;;;5023623;28;20496;-73
2023/02/24 10:09:20;;;;;;;77.57;50.75;;;11.00;99.90;;;;;;5019746;28;20668;-76
2023/02/24 10:11:53;;;;;;;76.13;49.92;;;11.20;99.90;;;;;;5018106;28;20224;-73
2023/02/24 10:14:42;;;;;;;76.47;49.25;;;11.50;99.90;;;;;;5017673;28;20621;-72
2023/02/24 10:17:29;;;;;;;80.72;49.92;;;11.60;99.90;;;;;;5020032;28;20286;-75
2023/02/24 10:19:59;;;;;;;77.07;52.25;;;11.40;99.90;;;;;;5015604;28;20225;-74
2023/02/24 10:22:49;;;;;;;84.63;56.47;;;11.20;99.90;;;;;;5014289;28;20270;-76
2023/02/24 10:25:34;;;;;;;97.20;62.35;;;10.90;99.90;;;;;;5012449;28;20330;-73
2023/02/24 10:28:08;;;;;;;84.22;54.15;;;10.70;99.90;;;;;;5018988;28;20219;-73
2023/02/24 10:30:47;;;;;;;87.95;55.15;;;10.80;99.90;;;;;;5014269;28;20326;-72
2023/02/24 10:33:24;;;;;;;84.25;54.38;;;10.80;99.90;;;;;;5015373;28;20346;-74
2023/02/24 10:35:53;;;;;;;102.15;60.50;;;10.90;99.90;;;;;;5021360;28;20195;-73
2023/02/24 10:38:21;;;;;;;82.35;53.03;;;10.90;99.90;;;;;;5019440;28;20224;-76
2023/02/24 10:40:56;;;;;;;87.15;56.65;;;11.30;99.90;;;;;;5016267;28;20263;-73
2023/02/24 10:43:30;;;;;;;73.60;50.67;;;11.70;99.90;;;;;;5040190;22;20247;-75
2023/02/24 10:46:15;;;;;;;75.25;51.58;;;11.70;99.90;;;;;;4993218;28;20200;-77
2023/02/24 10:48:52;;;;;;;81.07;53.05;;;12.00;99.90;;;;;;5006052;28;20222;-76
2023/02/24 10:51:29;;;;;;;83.88;54.85;;;12.10;99.90;;;;;;5007716;28;20219;-77
2023/02/24 10:54:21;;;;;;;73.60;50.70;;;12.10;99.90;;;;;;5007968;28;20216;-76
2023/02/24 10:57:06;;;;;;;73.63;49.47;;;11.90;99.90;;;;;;5006321;28;20212;-77
2023/02/24 11:03:05;;;;;;;70.68;47.58;;;12.40;99.90;;;;;;5007039;28;20250;-76
2023/02/24 11:05:42;;;;;;;74.53;49.58;;;12.30;99.90;;;;;;5008724;28;20215;-76
2023/02/24 11:08:35;;;;;;;80.13;52.00;;;12.30;99.90;;;;;;5007111;28;20235;-76
2023/02/24 11:11:18;;;;;;;79.95;51.17;;;12.50;99.90;;;;;;4985488;28;20658;-76
2023/02/24 11:19:30;;;;;;;64.60;44.65;;;12.00;99.90;;;;;;5002026;28;20283;-75
2023/02/24 11:21:58;;;;;;;58.15;40.40;;;12.10;99.90;;;;;;4983979;28;20220;-76
2023/02/24 11:24:26;;;;;;;67.93;45.95;;;12.10;99.90;;;;;;5005045;28;20256;-75
2023/02/24 11:26:55;;;;;;;83.25;55.92;;;12.20;99.90;;;;;;4986958;28;20311;-75
2023/02/24 11:29:45;;;;;;;72.97;48.17;;;12.20;99.90;;;;;;4981061;28;21295;-76
2023/02/24 11:32:33;;;;;;;71.43;47.20;;;11.90;99.90;;;;;;5003894;28;20274;-74
2023/02/24 11:35:10;;;;;;;73.95;50.90;;;11.90;99.90;;;;;;5003653;28;20258;-76
2023/02/24 11:37:41;;;;;;;72.18;48.33;;;12.10;99.90;;;;;;4986525;28;20230;-76
2023/02/24 11:40:17;;;;;;;62.58;45.03;;;12.50;99.90;;;;;;5000519;28;20227;-78
2023/02/24 11:42:51;;;;;;;58.75;41.58;;;12.60;99.90;;;;;;5008754;28;20204;-75
2023/02/24 11:45:29;;;;;;;57.08;41.53;;;12.80;99.90;;;;;;5014781;28;20227;-79
2023/02/24 11:48:02;;;;;;;58.42;38.95;;;12.90;99.90;;;;;;5016622;28;20224;-78
2023/02/24 11:50:38;;;;;;;67.97;43.90;;;13.00;99.90;;;;;;5007615;28;20262;-78
2023/02/24 11:53:15;;;;;;;67.07;44.47;;;13.00;99.90;;;;;;5003847;28;20198;-75
2023/02/24 11:56:10;;;;;;;65.82;43.30;;;12.80;99.90;;;;;;4984292;28;20204;-81
2023/02/24 12:02:10;;;;;;;66.22;42.75;;;13.10;99.90;;;;;;5033992;22;20385;-78
2023/02/24 12:04:43;;;;;;;53.10;37.75;;;13.50;99.90;;;;;;5024909;28;20258;-77
2023/02/24 12:07:18;;;;;;;55.50;38.13;;;13.60;99.90;;;;;;5023727;28;20250;-77
2023/02/24 12:09:50;;;;;;;64.50;43.10;;;13.60;99.90;;;;;;5018937;28;20485;-78
2023/02/24 12:12:20;;;;;;;62.63;43.03;;;13.80;99.90;;;;;;5022927;28;20290;-78
2023/02/24 12:14:51;;;;;;;62.22;43.97;;;13.70;99.90;;;;;;5022419;28;20301;-78
2023/02/24 12:17:25;;;;;;;62.08;42.17;;;13.70;99.90;;;;;;5027354;28;20239;-78
2023/02/24 12:19:58;;;;;;;68.47;45.53;;;13.70;99.90;;;;;;5023312;28;20290;-77
2023/02/24 12:22:33;;;;;;;77.10;48.92;;;13.90;99.90;;;;;;5025821;28;20253;-77
2023/02/24 12:25:00;;;;;;;84.15;57.08;;;13.80;99.90;;;;;;5021809;28;20223;-75
2023/02/24 12:27:41;;;;;;;89.65;58.47;;;13.50;99.90;;;;;;5017870;28;20308;-78
2023/02/24 12:30:34;;;;;;;91.68;60.67;;;13.20;99.90;;;;;;5022701;28;20220;-78
2023/02/24 12:33:16;;;;;;;86.30;56.40;;;13.10;99.90;;;;;;5022991;28;20215;-77
2023/02/24 12:35:51;;;;;;;87.55;55.88;;;12.70;99.90;;;;;;5025635;28;20487;-76
2023/02/24 12:38:34;;;;;;;86.07;56.53;;;12.50;99.90;;;;;;5021604;28;20251;-77
2023/02/24 12:41:13;;;;;;;80.97;54.67;;;12.40;99.90;;;;;;5018941;28;20238;-75
2023/02/24 12:43:47;;;;;;;91.25;62.40;;;12.30;99.90;;;;;;5018088;28;20761;-76
2023/02/24 12:46:22;;;;;;;83.60;57.95;;;12.60;99.90;;;;;;5022678;28;20218;-78
2023/02/24 12:49:16;;;;;;;83.88;56.70;;;12.70;99.90;;;;;;5019898;28;20314;-78
2023/02/24 12:51:56;;;;;;;81.38;55.00;;;12.70;99.90;;;;;;5002223;28;20225;-77
2023/02/24 12:54:30;;;;;;;79.72;52.95;;;12.70;99.90;;;;;;5022502;28;20251;-77
2023/02/24 12:57:06;;;;;;;82.82;55.38;;;13.00;99.90;;;;;;5022661;28;20250;-77
2023/02/24 12:59:37;;;;;;;77.38;53.25;;;13.20;99.90;;;;;;5017985;28;20250;-76
2023/02/24 13:02:10;;;;;;;80.55;52.40;;;13.20;99.90;;;;;;5026306;28;20234;-77
2023/02/24 13:04:48;;;;;;;70.18;48.25;;;13.10;99.90;;;;;;5020321;28;20299;-77
2023/02/24 13:07:35;;;;;;;64.85;46.17;;;13.20;99.90;;;;;;5022692;28;20722;-78
2023/02/24 13:10:17;;;;;;;65.00;43.92;;;13.30;99.90;;;;;;5020819;28;20219;-77
2023/02/24 13:12:53;;;;;;;61.55;42.53;;;13.50;99.90;;;;;;5024214;28;20503;-78
2023/02/24 13:15:22;;;;;;;59.80;41.28;;;13.60;99.90;;;;;;5020188;28;20219;-78
2023/02/24 13:17:51;;;;;;;59.92;41.05;;;13.60;99.90;;;;;;5020647;28;20230;-77
2023/02/24 13:20:31;;;;;;;58.53;40.30;;;13.80;99.90;;;;;;5023649;28;20215;-75
2023/02/24 13:23:00;;;;;;;55.40;39.58;;;13.80;99.90;;;;;;5020607;28;20254;-77
2023/02/24 13:25:32;;;;;;;56.33;39.03;;;13.80;99.90;;;;;;5023125;28;20648;-76